SWA2785 KSAN-PHOG
Flight info
| Callsign | SWA2785 |
|---|---|
| Flight time | 4h 58m |
| Altitude | 32000 |
| Route | PADRZ2 MALIT C1177 FICKY R578 FOOTS ETECO/N0464F340 DIALO R576 DENNS LNDHY1 |
| Aircraft | B38M/M-SDE1FGHILORVWXY/HB1 |
Departure
| Time | 2026-04-21 22:20 |
|---|---|
| Airport | San Diego International Airport (KSAN) |
Arrival
| Time | 2026-04-22 03:19 |
|---|---|
| Airport | Kahului International Airport (PHOG) |
| Time | Latitude | Longitude | Altitude | Speed | Heading |
|---|---|---|---|---|---|
| 2026-04-21 21:41 | 32.73318 | -117.19682 | 25 ft | 0 kts | 141° |
| 2026-04-21 22:02 | 32.73322 | -117.19685 | 22 ft | 2 kts | 138° |
| 2026-04-21 22:02 | 32.73332 | -117.19701 | 25 ft | 3 kts | 103° |
| 2026-04-21 22:02 | 32.73331 | -117.19718 | 27 ft | 3 kts | 46° |
| 2026-04-21 22:02 | 32.73318 | -117.19728 | 22 ft | 1 kts | 19° |
| 2026-04-21 22:03 | 32.73313 | -117.19730 | 24 ft | 0 kts | 19° |
| 2026-04-21 22:07 | 32.73320 | -117.19727 | 22 ft | 2 kts | 19° |
| 2026-04-21 22:07 | 32.73333 | -117.19721 | 26 ft | 2 kts | 19° |
| 2026-04-21 22:07 | 32.73351 | -117.19714 | 24 ft | 5 kts | 19° |
| 2026-04-21 22:07 | 32.73402 | -117.19687 | 26 ft | 8 kts | 41° |
| 2026-04-21 22:08 | 32.73413 | -117.19626 | 25 ft | 8 kts | 99° |
| 2026-04-21 22:08 | 32.73398 | -117.19561 | 28 ft | 8 kts | 105° |
| 2026-04-21 22:08 | 32.73380 | -117.19487 | 28 ft | 10 kts | 107° |
| 2026-04-21 22:08 | 32.73358 | -117.19396 | 28 ft | 13 kts | 106° |
| 2026-04-21 22:09 | 32.73331 | -117.19285 | 26 ft | 15 kts | 106° |
| 2026-04-21 22:09 | 32.73300 | -117.19159 | 25 ft | 16 kts | 106° |
| 2026-04-21 22:09 | 32.73270 | -117.19036 | 26 ft | 15 kts | 106° |
| 2026-04-21 22:09 | 32.73239 | -117.18910 | 27 ft | 16 kts | 105° |
| 2026-04-21 22:10 | 32.73209 | -117.18781 | 31 ft | 16 kts | 106° |
| 2026-04-21 22:10 | 32.73178 | -117.18652 | 34 ft | 17 kts | 106° |
| 2026-04-21 22:10 | 32.73142 | -117.18507 | 29 ft | 20 kts | 106° |
| 2026-04-21 22:10 | 32.73104 | -117.18349 | 28 ft | 20 kts | 105° |
| 2026-04-21 22:11 | 32.73064 | -117.18182 | 26 ft | 22 kts | 106° |
| 2026-04-21 22:11 | 32.73023 | -117.18018 | 24 ft | 23 kts | 106° |
| 2026-04-21 22:11 | 32.72981 | -117.17845 | 23 ft | 19 kts | 106° |
| 2026-04-21 22:11 | 32.72957 | -117.17743 | 22 ft | 9 kts | 105° |
| 2026-04-21 22:12 | 32.72951 | -117.17689 | 23 ft | 3 kts | 86° |
| 2026-04-21 22:12 | 32.72951 | -117.17688 | 23 ft | 0 kts | 85° |
| 2026-04-21 22:18 | 32.72954 | -117.17672 | 23 ft | 6 kts | 76° |
| 2026-04-21 22:19 | 32.72973 | -117.17602 | 28 ft | 12 kts | 59° |
| 2026-04-21 22:19 | 32.73035 | -117.17637 | 26 ft | 9 kts | 287° |
| 2026-04-21 22:19 | 32.73037 | -117.17647 | 26 ft | 0 kts | 287° |
| 2026-04-21 22:19 | 32.73051 | -117.17702 | 25 ft | 34 kts | 285° |
| 2026-04-21 22:20 | 32.73184 | -117.18254 | 29 ft | 104 kts | 285° |
| 2026-04-21 22:20 | 32.73440 | -117.19312 | 28 ft | 159 kts | 286° |
| 2026-04-21 22:20 | 32.73759 | -117.20628 | 567 ft | 167 kts | 285° |
| 2026-04-21 22:20 | 32.74094 | -117.21979 | 1270 ft | 176 kts | 286° |
| 2026-04-21 22:21 | 32.74661 | -117.23278 | 2008 ft | 177 kts | 304° |
| 2026-04-21 22:21 | 32.75438 | -117.24494 | 2453 ft | 193 kts | 303° |
| 2026-04-21 22:21 | 32.76287 | -117.25858 | 2791 ft | 220 kts | 303° |
| 2026-04-21 22:21 | 32.77240 | -117.27404 | 3356 ft | 234 kts | 303° |
| 2026-04-21 22:22 | 32.78202 | -117.28976 | 4173 ft | 245 kts | 303° |
| 2026-04-21 22:22 | 32.79230 | -117.30664 | 4912 ft | 254 kts | 303° |
| 2026-04-21 22:22 | 32.80212 | -117.32403 | 5816 ft | 254 kts | 291° |
| 2026-04-21 22:22 | 32.80544 | -117.34455 | 6592 ft | 255 kts | 266° |
| 2026-04-21 22:23 | 32.80276 | -117.36559 | 7337 ft | 260 kts | 258° |
| 2026-04-21 22:23 | 32.79961 | -117.38659 | 8190 ft | 260 kts | 258° |
| 2026-04-21 22:23 | 32.79651 | -117.40789 | 9042 ft | 262 kts | 258° |
| 2026-04-21 22:23 | 32.79347 | -117.42928 | 9884 ft | 263 kts | 258° |
| 2026-04-21 22:24 | 32.79042 | -117.45106 | 10468 ft | 274 kts | 258° |
| 2026-04-21 22:24 | 32.78730 | -117.47395 | 10739 ft | 294 kts | 258° |
| 2026-04-21 22:24 | 32.78397 | -117.49879 | 10977 ft | 313 kts | 259° |
| 2026-04-21 22:24 | 32.78044 | -117.52494 | 11337 ft | 327 kts | 259° |
| 2026-04-21 22:25 | 32.77678 | -117.55170 | 12042 ft | 328 kts | 259° |
| 2026-04-21 22:25 | 32.77305 | -117.57869 | 12674 ft | 332 kts | 259° |
| 2026-04-21 22:25 | 32.76928 | -117.60584 | 13341 ft | 335 kts | 259° |
| 2026-04-21 22:25 | 32.76545 | -117.63334 | 14002 ft | 337 kts | 259° |
| 2026-04-21 22:26 | 32.76158 | -117.66098 | 14579 ft | 340 kts | 259° |
| 2026-04-21 22:26 | 32.75774 | -117.68842 | 15144 ft | 342 kts | 259° |
| 2026-04-21 22:26 | 32.75383 | -117.71631 | 15707 ft | 344 kts | 259° |
| 2026-04-21 22:26 | 32.74988 | -117.74441 | 16261 ft | 346 kts | 259° |
| 2026-04-21 22:27 | 32.74590 | -117.77271 | 16803 ft | 348 kts | 259° |
| 2026-04-21 22:27 | 32.74189 | -117.80120 | 17337 ft | 350 kts | 259° |
| 2026-04-21 22:27 | 32.73784 | -117.82982 | 17867 ft | 352 kts | 259° |
| 2026-04-21 22:27 | 32.73377 | -117.85860 | 18378 ft | 354 kts | 259° |
| 2026-04-21 22:28 | 32.72966 | -117.88761 | 18827 ft | 356 kts | 259° |
| 2026-04-21 22:28 | 32.72553 | -117.91675 | 19293 ft | 358 kts | 258° |
| 2026-04-21 22:28 | 32.72143 | -117.94561 | 19747 ft | 359 kts | 258° |
| 2026-04-21 22:28 | 32.71725 | -117.97494 | 20206 ft | 361 kts | 258° |
| 2026-04-21 22:29 | 32.71304 | -118.00444 | 20658 ft | 363 kts | 258° |
| 2026-04-21 22:29 | 32.70880 | -118.03411 | 21093 ft | 365 kts | 258° |
| 2026-04-21 22:29 | 32.70454 | -118.06385 | 21524 ft | 367 kts | 258° |
| 2026-04-21 22:29 | 32.70024 | -118.09382 | 21942 ft | 369 kts | 258° |
| 2026-04-21 22:30 | 32.69591 | -118.12396 | 22345 ft | 371 kts | 258° |
| 2026-04-21 22:30 | 32.69156 | -118.15417 | 22758 ft | 373 kts | 258° |
| 2026-04-21 22:30 | 32.68717 | -118.18459 | 23164 ft | 375 kts | 258° |
| 2026-04-21 22:30 | 32.68275 | -118.21520 | 23573 ft | 377 kts | 258° |
| 2026-04-21 22:31 | 32.67831 | -118.24589 | 23912 ft | 379 kts | 258° |
| 2026-04-21 22:31 | 32.67383 | -118.27678 | 24248 ft | 380 kts | 258° |
| 2026-04-21 22:31 | 32.66933 | -118.30773 | 24589 ft | 381 kts | 258° |
| 2026-04-21 22:31 | 32.66480 | -118.33885 | 24925 ft | 383 kts | 258° |
| 2026-04-21 22:32 | 32.66025 | -118.37004 | 25256 ft | 384 kts | 257° |
| 2026-04-21 22:32 | 32.65569 | -118.40129 | 25599 ft | 385 kts | 258° |
| 2026-04-21 22:32 | 32.65109 | -118.43268 | 25937 ft | 386 kts | 258° |
| 2026-04-21 22:32 | 32.64653 | -118.46379 | 26238 ft | 388 kts | 257° |
| 2026-04-21 22:33 | 32.64188 | -118.49540 | 26539 ft | 389 kts | 257° |
| 2026-04-21 22:33 | 32.63722 | -118.52706 | 26835 ft | 391 kts | 257° |
| 2026-04-21 22:33 | 32.63253 | -118.55886 | 27130 ft | 392 kts | 257° |
| 2026-04-21 22:33 | 32.62781 | -118.59082 | 27421 ft | 394 kts | 257° |
| 2026-04-21 22:34 | 32.62306 | -118.62291 | 27708 ft | 395 kts | 257° |
| 2026-04-21 22:34 | 32.61828 | -118.65513 | 27991 ft | 396 kts | 257° |
| 2026-04-21 22:34 | 32.61349 | -118.68746 | 28272 ft | 398 kts | 257° |
| 2026-04-21 22:34 | 32.60867 | -118.71980 | 28562 ft | 399 kts | 257° |
| 2026-04-21 22:35 | 32.60383 | -118.75224 | 28824 ft | 400 kts | 257° |
| 2026-04-21 22:35 | 32.59902 | -118.78440 | 29184 ft | 399 kts | 257° |
| 2026-04-21 22:35 | 32.59418 | -118.81669 | 29590 ft | 398 kts | 257° |
| 2026-04-21 22:35 | 32.58932 | -118.84900 | 29994 ft | 396 kts | 257° |
| 2026-04-21 22:36 | 32.57967 | -118.91312 | 30689 ft | 393 kts | 257° |
| 2026-04-21 22:36 | 32.57486 | -118.94500 | 31011 ft | 391 kts | 257° |
| 2026-04-21 22:36 | 32.57008 | -118.97667 | 31335 ft | 390 kts | 257° |
| 2026-04-21 22:37 | 32.56530 | -119.00820 | 31667 ft | 388 kts | 257° |
| 2026-04-21 22:37 | 32.56053 | -119.03965 | 31984 ft | 387 kts | 257° |
| 2026-04-21 22:37 | 32.55577 | -119.07100 | 32102 ft | 387 kts | 257° |
| 2026-04-21 22:37 | 32.55101 | -119.10230 | 32102 ft | 385 kts | 257° |
| 2026-04-21 22:38 | 32.54151 | -119.16458 | 32104 ft | 384 kts | 257° |
| 2026-04-21 22:38 | 32.53199 | -119.22683 | 32106 ft | 384 kts | 257° |
| 2026-04-21 22:39 | 32.52244 | -119.28903 | 32112 ft | 383 kts | 257° |
| 2026-04-21 22:39 | 32.51449 | -119.34065 | 32111 ft | 383 kts | 257° |
| 2026-04-21 22:40 | 32.50490 | -119.40274 | 32113 ft | 383 kts | 257° |
| 2026-04-21 22:40 | 32.49527 | -119.46485 | 32113 ft | 383 kts | 257° |
| 2026-04-21 22:41 | 32.48563 | -119.52689 | 32113 ft | 383 kts | 257° |
| 2026-04-21 22:41 | 32.47190 | -119.58723 | 32079 ft | 379 kts | 241° |
| 2026-04-21 22:42 | 32.43884 | -119.63625 | 32098 ft | 384 kts | 232° |
| 2026-04-21 22:42 | 32.40319 | -119.68337 | 32108 ft | 384 kts | 231° |
| 2026-04-21 22:43 | 32.36702 | -119.72996 | 32112 ft | 384 kts | 231° |
| 2026-04-21 22:43 | 32.33066 | -119.77640 | 32111 ft | 384 kts | 231° |
| 2026-04-21 22:44 | 32.29429 | -119.82274 | 32112 ft | 385 kts | 231° |
| 2026-04-21 22:44 | 32.25786 | -119.86909 | 32109 ft | 386 kts | 231° |
| 2026-04-21 22:45 | 32.22132 | -119.91553 | 32113 ft | 386 kts | 231° |
| 2026-04-21 22:45 | 32.18477 | -119.96192 | 32108 ft | 386 kts | 231° |
| 2026-04-21 22:46 | 32.14820 | -120.00827 | 32112 ft | 386 kts | 231° |
| 2026-04-21 22:46 | 32.11157 | -120.05463 | 32111 ft | 386 kts | 231° |
| 2026-04-21 22:47 | 32.07499 | -120.10088 | 32113 ft | 386 kts | 231° |
| 2026-04-21 22:47 | 32.03836 | -120.14713 | 32119 ft | 386 kts | 231° |
| 2026-04-21 22:48 | 32.00195 | -120.19306 | 32118 ft | 386 kts | 231° |
| 2026-04-21 22:48 | 31.96524 | -120.23930 | 32118 ft | 386 kts | 231° |
| 2026-04-21 22:49 | 31.93605 | -120.29082 | 32129 ft | 378 kts | 248° |
| 2026-04-21 22:49 | 31.91565 | -120.34815 | 32115 ft | 380 kts | 248° |
| 2026-04-21 22:50 | 31.89582 | -120.40584 | 32123 ft | 380 kts | 249° |
| 2026-04-21 22:50 | 31.87622 | -120.46363 | 32118 ft | 380 kts | 249° |
| 2026-04-21 22:51 | 31.85663 | -120.52145 | 32112 ft | 380 kts | 249° |
| 2026-04-21 22:51 | 31.83702 | -120.57921 | 32115 ft | 380 kts | 249° |
| 2026-04-21 22:52 | 31.81736 | -120.63704 | 32120 ft | 380 kts | 249° |
| 2026-04-21 22:52 | 31.79770 | -120.69478 | 32118 ft | 380 kts | 249° |
| 2026-04-21 22:53 | 31.77794 | -120.75270 | 32121 ft | 380 kts | 249° |
| 2026-04-21 22:53 | 31.75833 | -120.81008 | 32118 ft | 380 kts | 249° |
| 2026-04-21 22:54 | 31.73858 | -120.86777 | 32116 ft | 380 kts | 249° |
| 2026-04-21 22:54 | 31.71879 | -120.92548 | 32118 ft | 380 kts | 249° |
| 2026-04-21 22:55 | 31.69896 | -120.98323 | 32113 ft | 382 kts | 249° |
| 2026-04-21 22:55 | 31.67891 | -121.04148 | 32118 ft | 386 kts | 249° |
| 2026-04-21 22:56 | 31.65877 | -121.09988 | 32120 ft | 386 kts | 249° |
| 2026-04-21 22:56 | 31.63874 | -121.15790 | 32101 ft | 386 kts | 249° |
| 2026-04-21 22:57 | 31.61842 | -121.21662 | 32120 ft | 391 kts | 249° |
| 2026-04-21 22:57 | 31.59795 | -121.27569 | 32123 ft | 391 kts | 249° |
| 2026-04-21 22:58 | 31.57744 | -121.33478 | 32124 ft | 391 kts | 249° |
| 2026-04-21 22:58 | 31.55740 | -121.39421 | 32110 ft | 390 kts | 255° |
| 2026-04-21 22:59 | 31.54553 | -121.45632 | 32106 ft | 390 kts | 257° |
| 2026-04-21 22:59 | 31.53381 | -121.51799 | 32125 ft | 391 kts | 257° |
| 2026-04-21 23:00 | 31.52202 | -121.58019 | 32126 ft | 390 kts | 257° |
| 2026-04-21 23:00 | 31.51023 | -121.64222 | 32132 ft | 387 kts | 257° |
| 2026-04-21 23:01 | 31.49853 | -121.70364 | 32128 ft | 386 kts | 257° |
| 2026-04-21 23:01 | 31.48679 | -121.76506 | 32127 ft | 386 kts | 257° |
| 2026-04-21 23:02 | 31.47502 | -121.82653 | 32124 ft | 386 kts | 257° |
| 2026-04-21 23:02 | 31.46321 | -121.88797 | 32126 ft | 386 kts | 257° |
| 2026-04-21 23:03 | 31.45140 | -121.94933 | 32129 ft | 386 kts | 257° |
| 2026-04-21 23:04 | 31.41663 | -122.12884 | 32122 ft | 387 kts | 257° |
| 2026-04-21 23:05 | 31.40465 | -122.19037 | 32129 ft | 387 kts | 257° |
| 2026-04-21 23:05 | 31.39267 | -122.25177 | 32126 ft | 387 kts | 257° |
| 2026-04-21 23:06 | 31.38065 | -122.31315 | 32130 ft | 387 kts | 257° |
| 2026-04-21 23:06 | 31.36859 | -122.37460 | 32128 ft | 387 kts | 257° |
| 2026-04-21 23:07 | 31.35651 | -122.43600 | 32135 ft | 388 kts | 257° |
| 2026-04-21 23:07 | 31.34443 | -122.49720 | 32135 ft | 388 kts | 257° |
| 2026-04-21 23:08 | 31.33224 | -122.55882 | 32136 ft | 387 kts | 257° |
| 2026-04-21 23:08 | 31.32006 | -122.62021 | 32124 ft | 387 kts | 257° |
| 2026-04-21 23:09 | 31.30792 | -122.68124 | 32129 ft | 387 kts | 258° |
| 2026-04-21 23:09 | 31.29566 | -122.74270 | 32131 ft | 387 kts | 257° |
| 2026-04-21 23:10 | 31.28340 | -122.80405 | 32136 ft | 387 kts | 257° |
| 2026-04-21 23:10 | 31.27111 | -122.86535 | 32126 ft | 387 kts | 257° |
| 2026-04-21 23:11 | 31.25879 | -122.92664 | 32136 ft | 387 kts | 258° |
| 2026-04-21 23:11 | 31.24651 | -122.98755 | 32136 ft | 387 kts | 258° |
| 2026-04-21 23:12 | 31.23414 | -123.04878 | 32128 ft | 387 kts | 258° |
| 2026-04-21 23:12 | 31.22173 | -123.11000 | 32135 ft | 387 kts | 258° |
| 2026-04-21 23:13 | 31.20930 | -123.17121 | 32123 ft | 387 kts | 258° |
| 2026-04-21 23:13 | 31.19682 | -123.23248 | 32132 ft | 388 kts | 258° |
| 2026-04-21 23:14 | 31.18431 | -123.29379 | 32134 ft | 388 kts | 258° |
| 2026-04-21 23:14 | 31.17177 | -123.35507 | 32136 ft | 388 kts | 258° |
| 2026-04-21 23:15 | 31.15921 | -123.41631 | 32139 ft | 388 kts | 258° |
| 2026-04-21 23:15 | 31.14670 | -123.47720 | 32138 ft | 388 kts | 258° |
| 2026-04-21 23:16 | 31.13410 | -123.53842 | 32138 ft | 388 kts | 258° |
| 2026-04-21 23:16 | 31.12830 | -123.60087 | 32140 ft | 388 kts | 265° |
| 2026-04-21 23:17 | 31.12362 | -123.66347 | 32138 ft | 387 kts | 265° |
| 2026-04-21 23:17 | 31.11898 | -123.72613 | 32135 ft | 388 kts | 265° |
| 2026-04-21 23:18 | 31.11430 | -123.78891 | 32140 ft | 388 kts | 265° |
| 2026-04-21 23:18 | 31.10961 | -123.85157 | 32140 ft | 388 kts | 265° |
| 2026-04-21 23:19 | 31.10492 | -123.91381 | 32141 ft | 388 kts | 265° |
| 2026-04-21 23:19 | 31.10016 | -123.97656 | 32130 ft | 388 kts | 265° |
| 2026-04-21 23:20 | 31.09536 | -124.03933 | 32143 ft | 389 kts | 265° |
| 2026-04-21 23:20 | 31.09053 | -124.10224 | 32145 ft | 389 kts | 265° |
| 2026-04-21 23:21 | 31.08566 | -124.16510 | 32143 ft | 389 kts | 265° |
| 2026-04-21 23:21 | 31.08077 | -124.22793 | 32133 ft | 389 kts | 265° |
| 2026-04-21 23:22 | 31.07584 | -124.29089 | 32140 ft | 390 kts | 265° |
| 2026-04-21 23:22 | 31.07090 | -124.35354 | 32142 ft | 390 kts | 265° |
| 2026-04-21 23:23 | 31.06590 | -124.41657 | 32144 ft | 390 kts | 265° |
| 2026-04-21 23:23 | 31.06087 | -124.47963 | 32135 ft | 390 kts | 265° |
| 2026-04-21 23:24 | 31.05580 | -124.54272 | 32146 ft | 392 kts | 265° |
| 2026-04-21 23:24 | 31.05068 | -124.60610 | 32145 ft | 391 kts | 265° |
| 2026-04-21 23:25 | 31.04556 | -124.66900 | 32146 ft | 391 kts | 265° |
| 2026-04-21 23:25 | 31.04040 | -124.73216 | 32146 ft | 391 kts | 265° |
| 2026-04-21 23:26 | 31.03518 | -124.79549 | 32149 ft | 393 kts | 265° |
| 2026-04-21 23:26 | 31.02993 | -124.85888 | 32160 ft | 393 kts | 265° |
| 2026-04-21 23:27 | 31.02466 | -124.92219 | 32156 ft | 389 kts | 265° |
| 2026-04-21 23:27 | 31.01941 | -124.98490 | 32150 ft | 389 kts | 265° |
| 2026-04-21 23:28 | 31.01411 | -125.04776 | 32149 ft | 390 kts | 265° |
| 2026-04-21 23:28 | 31.00876 | -125.11079 | 32148 ft | 390 kts | 265° |
| 2026-04-21 23:29 | 31.00343 | -125.17341 | 32149 ft | 390 kts | 265° |
| 2026-04-21 23:29 | 30.99802 | -125.23639 | 32149 ft | 390 kts | 265° |
| 2026-04-21 23:30 | 30.99258 | -125.29946 | 32150 ft | 391 kts | 265° |
| 2026-04-21 23:30 | 30.98711 | -125.36252 | 32151 ft | 391 kts | 265° |
| 2026-04-21 23:31 | 30.98160 | -125.42563 | 32151 ft | 391 kts | 265° |
| 2026-04-21 23:31 | 30.97611 | -125.48827 | 32152 ft | 391 kts | 265° |
| 2026-04-21 23:32 | 30.97053 | -125.55150 | 32151 ft | 393 kts | 265° |
| 2026-04-21 23:32 | 30.96490 | -125.61489 | 32150 ft | 393 kts | 265° |
| 2026-04-21 23:33 | 30.95924 | -125.67835 | 32151 ft | 393 kts | 265° |
| 2026-04-21 23:33 | 30.95355 | -125.74173 | 32151 ft | 393 kts | 265° |
| 2026-04-21 23:34 | 30.94783 | -125.80512 | 32148 ft | 395 kts | 265° |
| 2026-04-21 23:34 | 30.94210 | -125.86830 | 32148 ft | 395 kts | 265° |
| 2026-04-21 23:35 | 30.93630 | -125.93186 | 32169 ft | 394 kts | 265° |
| 2026-04-21 23:35 | 30.93049 | -125.99516 | 32153 ft | 391 kts | 265° |
| 2026-04-21 23:36 | 30.92467 | -126.05824 | 32151 ft | 392 kts | 265° |
| 2026-04-21 23:36 | 30.91885 | -126.12106 | 32152 ft | 392 kts | 265° |
| 2026-04-21 23:37 | 30.91296 | -126.18420 | 32152 ft | 392 kts | 265° |
| 2026-04-21 23:37 | 30.90705 | -126.24733 | 32148 ft | 392 kts | 265° |
| 2026-04-21 23:38 | 30.90109 | -126.31054 | 32155 ft | 394 kts | 265° |
| 2026-04-21 23:38 | 30.89512 | -126.37363 | 32153 ft | 394 kts | 265° |
| 2026-04-21 23:39 | 30.88907 | -126.43717 | 32154 ft | 394 kts | 265° |
| 2026-04-21 23:39 | 30.88299 | -126.50060 | 32154 ft | 394 kts | 265° |
| 2026-04-21 23:40 | 30.87692 | -126.56370 | 32154 ft | 395 kts | 265° |
| 2026-04-21 23:40 | 30.87077 | -126.62733 | 32156 ft | 395 kts | 265° |
| 2026-04-21 23:41 | 30.86459 | -126.69091 | 32161 ft | 395 kts | 265° |
| 2026-04-21 23:41 | 30.85837 | -126.75452 | 32142 ft | 395 kts | 265° |
| 2026-04-21 23:42 | 30.85211 | -126.81831 | 32159 ft | 398 kts | 264° |
| 2026-04-21 23:42 | 30.84580 | -126.88222 | 32159 ft | 398 kts | 264° |
| 2026-04-21 23:43 | 30.83947 | -126.94601 | 32157 ft | 396 kts | 264° |
| 2026-04-21 23:43 | 30.83420 | -126.99891 | 32144 ft | 396 kts | 264° |
| 2026-04-21 23:44 | 30.82780 | -127.06275 | 32160 ft | 398 kts | 264° |
| 2026-04-21 23:44 | 30.82032 | -127.13706 | 32159 ft | 398 kts | 264° |
| 2026-04-21 23:45 | 30.81166 | -127.22255 | 32159 ft | 398 kts | 264° |
| 2026-04-21 23:46 | 30.80514 | -127.28655 | 32160 ft | 399 kts | 264° |
| 2026-04-21 23:46 | 30.79856 | -127.35073 | 32162 ft | 399 kts | 264° |
| 2026-04-21 23:47 | 30.79196 | -127.41488 | 32160 ft | 399 kts | 264° |
| 2026-04-21 23:47 | 30.78537 | -127.47861 | 32147 ft | 400 kts | 264° |
| 2026-04-21 23:48 | 30.77868 | -127.54296 | 32163 ft | 402 kts | 264° |
| 2026-04-21 23:48 | 30.77194 | -127.60748 | 32162 ft | 402 kts | 264° |
| 2026-04-21 23:49 | 30.76518 | -127.67194 | 32162 ft | 402 kts | 264° |
| 2026-04-21 23:49 | 30.75837 | -127.73646 | 32158 ft | 402 kts | 264° |
| 2026-04-21 23:50 | 30.75152 | -127.80116 | 32165 ft | 404 kts | 264° |
| 2026-04-21 23:50 | 30.74462 | -127.86593 | 32185 ft | 403 kts | 264° |
| 2026-04-21 23:51 | 30.73771 | -127.93047 | 32162 ft | 402 kts | 264° |
| 2026-04-21 23:51 | 30.73078 | -127.99497 | 32160 ft | 403 kts | 264° |
| 2026-04-21 23:52 | 30.72379 | -128.05971 | 32162 ft | 404 kts | 264° |
| 2026-04-21 23:52 | 30.71676 | -128.12443 | 32165 ft | 404 kts | 264° |
| 2026-04-21 23:53 | 30.70971 | -128.18914 | 32165 ft | 404 kts | 264° |
| 2026-04-21 23:53 | 30.70260 | -128.25401 | 32167 ft | 406 kts | 264° |
| 2026-04-21 23:54 | 30.69544 | -128.31908 | 32166 ft | 406 kts | 264° |
| 2026-04-21 23:54 | 30.68824 | -128.38413 | 32163 ft | 406 kts | 264° |
| 2026-04-21 23:55 | 30.68106 | -128.44876 | 32170 ft | 406 kts | 264° |
| 2026-04-21 23:55 | 30.67376 | -128.51424 | 32167 ft | 406 kts | 264° |
| 2026-04-21 23:56 | 30.66652 | -128.57883 | 32166 ft | 406 kts | 264° |
| 2026-04-21 23:56 | 30.65919 | -128.64386 | 32166 ft | 406 kts | 264° |
| 2026-04-21 23:57 | 30.65182 | -128.70896 | 32168 ft | 407 kts | 263° |
| 2026-04-21 23:57 | 30.64441 | -128.77418 | 32168 ft | 407 kts | 263° |
| 2026-04-21 23:58 | 30.63696 | -128.83940 | 32168 ft | 407 kts | 263° |
| 2026-04-21 23:58 | 30.62949 | -128.90457 | 32157 ft | 408 kts | 263° |
| 2026-04-21 23:59 | 30.62196 | -128.96992 | 32168 ft | 409 kts | 263° |
| 2026-04-21 23:59 | 30.61439 | -129.03532 | 32168 ft | 409 kts | 263° |
| 2026-04-22 00:00 | 30.60678 | -129.10073 | 32167 ft | 409 kts | 263° |
| 2026-04-22 00:00 | 30.59915 | -129.16609 | 32168 ft | 409 kts | 263° |
| 2026-04-22 00:01 | 30.59146 | -129.23162 | 32170 ft | 410 kts | 263° |
| 2026-04-22 00:01 | 30.58375 | -129.29709 | 32166 ft | 410 kts | 263° |
| 2026-04-22 00:02 | 30.57600 | -129.36258 | 32158 ft | 410 kts | 263° |
| 2026-04-22 00:02 | 30.56821 | -129.42812 | 32178 ft | 410 kts | 263° |
| 2026-04-22 00:03 | 30.56038 | -129.49372 | 32170 ft | 410 kts | 263° |
| 2026-04-22 00:03 | 30.55252 | -129.55928 | 32171 ft | 410 kts | 263° |
| 2026-04-22 00:04 | 30.54468 | -129.62435 | 32166 ft | 410 kts | 262° |
| 2026-04-22 00:04 | 30.53677 | -129.68983 | 32171 ft | 410 kts | 262° |
| 2026-04-22 00:05 | 30.52880 | -129.75544 | 32171 ft | 412 kts | 263° |
| 2026-04-22 00:05 | 30.52077 | -129.82126 | 32164 ft | 412 kts | 262° |
| 2026-04-22 00:06 | 30.51270 | -129.88718 | 32171 ft | 413 kts | 262° |
| 2026-04-22 00:06 | 30.50458 | -129.95314 | 32180 ft | 413 kts | 262° |
| 2026-04-22 00:07 | 30.49644 | -130.01906 | 32172 ft | 413 kts | 262° |
| 2026-04-22 00:07 | 30.48826 | -130.08496 | 32166 ft | 413 kts | 262° |
| 2026-04-22 00:08 | 30.48005 | -130.15084 | 32170 ft | 413 kts | 262° |
| 2026-04-22 00:08 | 30.47181 | -130.21670 | 32175 ft | 413 kts | 262° |
| 2026-04-22 00:09 | 30.46353 | -130.28259 | 32172 ft | 413 kts | 262° |
| 2026-04-22 00:09 | 30.45524 | -130.34834 | 32170 ft | 412 kts | 262° |
| 2026-04-22 00:10 | 30.44691 | -130.41408 | 32171 ft | 412 kts | 262° |
| 2026-04-22 00:10 | 30.43855 | -130.47979 | 32164 ft | 412 kts | 262° |
| 2026-04-22 00:11 | 30.43016 | -130.54549 | 32170 ft | 412 kts | 262° |
| 2026-04-22 00:11 | 30.42174 | -130.61115 | 32177 ft | 413 kts | 262° |
| 2026-04-22 00:12 | 30.41324 | -130.67713 | 32168 ft | 415 kts | 262° |
| 2026-04-22 00:12 | 30.40470 | -130.74321 | 32170 ft | 415 kts | 262° |
| 2026-04-22 00:13 | 30.39618 | -130.80881 | 32169 ft | 415 kts | 262° |
| 2026-04-22 00:13 | 30.38758 | -130.87485 | 32173 ft | 415 kts | 262° |
| 2026-04-22 00:14 | 30.37895 | -130.94088 | 32169 ft | 414 kts | 261° |
| 2026-04-22 00:14 | 30.37030 | -131.00683 | 32173 ft | 414 kts | 261° |
| 2026-04-22 00:15 | 30.36163 | -131.07271 | 32170 ft | 414 kts | 261° |
| 2026-04-22 00:15 | 30.35292 | -131.13858 | 32172 ft | 414 kts | 261° |
| 2026-04-22 00:16 | 30.34419 | -131.20437 | 32178 ft | 413 kts | 261° |
| 2026-04-22 00:16 | 30.33543 | -131.27007 | 32175 ft | 413 kts | 261° |
| 2026-04-22 00:17 | 30.32665 | -131.33576 | 32175 ft | 413 kts | 261° |
| 2026-04-22 00:17 | 30.31784 | -131.40139 | 32174 ft | 412 kts | 261° |
| 2026-04-22 00:18 | 30.30902 | -131.46685 | 32191 ft | 412 kts | 261° |
| 2026-04-22 00:18 | 30.30008 | -131.53292 | 32180 ft | 418 kts | 261° |
| 2026-04-22 00:19 | 30.29107 | -131.59928 | 32179 ft | 417 kts | 261° |
| 2026-04-22 00:19 | 30.28053 | -131.66507 | 32185 ft | 416 kts | 258° |
| 2026-04-22 00:20 | 30.26908 | -131.73066 | 32180 ft | 416 kts | 259° |
| 2026-04-22 00:20 | 30.25777 | -131.79620 | 32180 ft | 416 kts | 259° |
| 2026-04-22 00:21 | 30.24646 | -131.86173 | 32184 ft | 415 kts | 258° |
| 2026-04-22 00:21 | 30.23513 | -131.92718 | 32182 ft | 415 kts | 258° |
| 2026-04-22 00:22 | 30.22376 | -131.99264 | 32175 ft | 415 kts | 258° |
| 2026-04-22 00:22 | 30.21237 | -132.05797 | 32182 ft | 414 kts | 258° |
| 2026-04-22 00:23 | 30.20098 | -132.12314 | 32184 ft | 414 kts | 258° |
| 2026-04-22 00:23 | 30.18956 | -132.18830 | 32184 ft | 414 kts | 258° |
| 2026-04-22 00:24 | 30.17811 | -132.25338 | 32182 ft | 412 kts | 258° |
| 2026-04-22 00:24 | 30.16668 | -132.31823 | 32184 ft | 412 kts | 258° |
| 2026-04-22 00:25 | 30.15519 | -132.38313 | 32184 ft | 412 kts | 258° |
| 2026-04-22 00:25 | 30.14366 | -132.44808 | 32183 ft | 415 kts | 258° |
| 2026-04-22 00:26 | 30.13202 | -132.51354 | 32181 ft | 416 kts | 258° |
| 2026-04-22 00:26 | 30.12032 | -132.57906 | 32186 ft | 416 kts | 258° |
| 2026-04-22 00:27 | 30.10859 | -132.64457 | 32182 ft | 416 kts | 258° |
| 2026-04-22 00:27 | 30.09687 | -132.70981 | 32181 ft | 415 kts | 258° |
| 2026-04-22 00:28 | 30.08519 | -132.77465 | 32187 ft | 415 kts | 258° |
| 2026-04-22 00:28 | 30.07332 | -132.84033 | 32183 ft | 415 kts | 258° |
| 2026-04-22 00:29 | 30.06159 | -132.90508 | 32186 ft | 415 kts | 258° |
| 2026-04-22 00:29 | 30.04974 | -132.97026 | 32186 ft | 415 kts | 258° |
| 2026-04-22 00:30 | 30.03979 | -133.02486 | 32185 ft | 415 kts | 258° |
| 2026-04-22 00:30 | 30.02600 | -133.10032 | 32188 ft | 412 kts | 258° |
| 2026-04-22 00:31 | 30.01415 | -133.16496 | 32186 ft | 412 kts | 258° |
| 2026-04-22 00:31 | 30.00418 | -133.21916 | 32189 ft | 412 kts | 258° |
| 2026-04-22 00:32 | 29.99228 | -133.28374 | 32188 ft | 411 kts | 258° |
| 2026-04-22 00:32 | 29.98045 | -133.34771 | 32189 ft | 410 kts | 257° |
| 2026-04-22 00:33 | 29.96852 | -133.41209 | 32188 ft | 410 kts | 257° |
| 2026-04-22 00:33 | 29.95657 | -133.47633 | 32190 ft | 408 kts | 257° |
| 2026-04-22 00:34 | 29.94468 | -133.54013 | 32190 ft | 407 kts | 257° |
| 2026-04-22 00:34 | 29.93274 | -133.60398 | 32189 ft | 407 kts | 257° |
| 2026-04-22 00:35 | 29.92079 | -133.66771 | 32188 ft | 406 kts | 257° |
| 2026-04-22 00:35 | 29.90886 | -133.73118 | 32189 ft | 405 kts | 257° |
| 2026-04-22 00:36 | 29.89690 | -133.79459 | 32189 ft | 405 kts | 257° |
| 2026-04-22 00:36 | 29.88491 | -133.85799 | 32188 ft | 405 kts | 257° |
| 2026-04-22 00:37 | 29.87292 | -133.92122 | 32188 ft | 404 kts | 257° |
| 2026-04-22 00:37 | 29.86090 | -133.98443 | 32190 ft | 404 kts | 257° |
| 2026-04-22 00:38 | 29.84885 | -134.04763 | 32191 ft | 404 kts | 257° |
| 2026-04-22 00:38 | 29.83677 | -134.11085 | 32190 ft | 404 kts | 257° |
| 2026-04-22 00:39 | 29.82466 | -134.17401 | 32190 ft | 404 kts | 256° |
| 2026-04-22 00:39 | 29.81252 | -134.23720 | 32189 ft | 404 kts | 256° |
| 2026-04-22 00:40 | 29.80031 | -134.30053 | 32190 ft | 407 kts | 257° |
| 2026-04-22 00:40 | 29.78801 | -134.36417 | 32191 ft | 408 kts | 257° |
| 2026-04-22 00:41 | 29.77576 | -134.42742 | 32188 ft | 407 kts | 256° |
| 2026-04-22 00:41 | 29.76337 | -134.49113 | 32190 ft | 408 kts | 256° |
| 2026-04-22 00:42 | 29.75096 | -134.55483 | 32189 ft | 408 kts | 256° |
| 2026-04-22 00:42 | 29.73851 | -134.61857 | 32187 ft | 408 kts | 256° |
| 2026-04-22 00:43 | 29.72603 | -134.68230 | 32189 ft | 409 kts | 256° |
| 2026-04-22 00:43 | 29.71349 | -134.74614 | 32189 ft | 409 kts | 256° |
| 2026-04-22 00:44 | 29.70092 | -134.80993 | 32189 ft | 409 kts | 256° |
| 2026-04-22 00:44 | 29.68833 | -134.87368 | 32189 ft | 409 kts | 256° |
| 2026-04-22 00:45 | 29.67571 | -134.93746 | 32193 ft | 409 kts | 256° |
| 2026-04-22 00:45 | 29.66304 | -135.00127 | 32207 ft | 409 kts | 256° |
| 2026-04-22 00:46 | 29.65028 | -135.06535 | 32197 ft | 413 kts | 256° |
| 2026-04-22 00:46 | 29.63742 | -135.12980 | 32192 ft | 414 kts | 256° |
| 2026-04-22 00:47 | 29.62453 | -135.19420 | 32195 ft | 414 kts | 256° |
| 2026-04-22 00:47 | 29.61156 | -135.25881 | 32194 ft | 416 kts | 256° |
| 2026-04-22 00:48 | 29.59865 | -135.32300 | 32193 ft | 414 kts | 256° |
| 2026-04-22 00:48 | 29.58567 | -135.38733 | 32201 ft | 414 kts | 256° |
| 2026-04-22 00:49 | 29.57260 | -135.45196 | 32198 ft | 416 kts | 256° |
| 2026-04-22 00:49 | 29.55946 | -135.51674 | 32194 ft | 416 kts | 256° |
| 2026-04-22 00:50 | 29.54630 | -135.58145 | 32202 ft | 416 kts | 256° |
| 2026-04-22 00:50 | 29.53309 | -135.64623 | 32193 ft | 416 kts | 256° |
| 2026-04-22 00:51 | 29.51988 | -135.71089 | 32193 ft | 416 kts | 256° |
| 2026-04-22 00:51 | 29.50663 | -135.77553 | 32200 ft | 416 kts | 256° |
| 2026-04-22 00:52 | 29.49334 | -135.84018 | 32197 ft | 417 kts | 256° |
| 2026-04-22 00:52 | 29.48000 | -135.90494 | 32193 ft | 417 kts | 256° |
| 2026-04-22 00:53 | 29.46665 | -135.96958 | 32192 ft | 415 kts | 256° |
| 2026-04-22 00:53 | 29.45330 | -136.03399 | 32193 ft | 416 kts | 256° |
| 2026-04-22 00:54 | 29.43988 | -136.09865 | 32196 ft | 416 kts | 256° |
| 2026-04-22 00:54 | 29.42652 | -136.16284 | 32195 ft | 416 kts | 256° |
| 2026-04-22 00:55 | 29.41302 | -136.22747 | 32197 ft | 417 kts | 256° |
| 2026-04-22 00:55 | 29.39274 | -136.32433 | 32192 ft | 414 kts | 256° |
| 2026-04-22 00:56 | 29.37926 | -136.38850 | 32200 ft | 414 kts | 256° |
| 2026-04-22 00:56 | 29.36570 | -136.45292 | 32197 ft | 416 kts | 256° |
| 2026-04-22 00:57 | 29.35209 | -136.51736 | 32193 ft | 416 kts | 256° |
| 2026-04-22 00:57 | 29.33846 | -136.58178 | 32203 ft | 416 kts | 255° |
| 2026-04-22 00:58 | 29.32475 | -136.64635 | 32193 ft | 416 kts | 255° |
| 2026-04-22 00:58 | 29.31109 | -136.71058 | 32192 ft | 415 kts | 255° |
| 2026-04-22 00:59 | 29.29739 | -136.77480 | 32192 ft | 415 kts | 255° |
| 2026-04-22 00:59 | 29.28366 | -136.83901 | 32199 ft | 415 kts | 255° |
| 2026-04-22 01:00 | 29.26991 | -136.90316 | 32195 ft | 415 kts | 255° |
| 2026-04-22 01:00 | 29.25614 | -136.96724 | 32185 ft | 414 kts | 255° |
| 2026-04-22 01:01 | 29.24250 | -137.03056 | 32200 ft | 412 kts | 255° |
| 2026-04-22 01:01 | 29.22874 | -137.09429 | 32194 ft | 412 kts | 255° |
| 2026-04-22 01:02 | 29.21494 | -137.15802 | 32193 ft | 412 kts | 255° |
| 2026-04-22 01:02 | 29.20109 | -137.22184 | 32196 ft | 415 kts | 255° |
| 2026-04-22 01:03 | 29.18711 | -137.28610 | 32195 ft | 416 kts | 255° |
| 2026-04-22 01:03 | 29.17317 | -137.35001 | 32193 ft | 411 kts | 255° |
| 2026-04-22 01:04 | 29.15934 | -137.41327 | 32197 ft | 411 kts | 255° |
| 2026-04-22 01:04 | 29.14538 | -137.47701 | 32191 ft | 414 kts | 255° |
| 2026-04-22 01:05 | 29.13134 | -137.54090 | 32198 ft | 414 kts | 255° |
| 2026-04-22 01:05 | 29.11729 | -137.60471 | 32202 ft | 414 kts | 255° |
| 2026-04-22 01:06 | 29.10310 | -137.66899 | 32192 ft | 418 kts | 255° |
| 2026-04-22 01:06 | 29.08899 | -137.73273 | 32196 ft | 412 kts | 255° |
| 2026-04-22 01:07 | 29.07492 | -137.79618 | 32193 ft | 412 kts | 255° |
| 2026-04-22 01:07 | 29.06076 | -137.85984 | 32199 ft | 416 kts | 255° |
| 2026-04-22 01:08 | 29.04646 | -137.92402 | 32195 ft | 416 kts | 255° |
| 2026-04-22 01:08 | 29.03214 | -137.98812 | 32196 ft | 416 kts | 255° |
| 2026-04-22 01:09 | 29.01780 | -138.05215 | 32194 ft | 415 kts | 254° |
| 2026-04-22 01:09 | 29.00347 | -138.11598 | 32200 ft | 415 kts | 254° |
| 2026-04-22 01:10 | 28.98911 | -138.17980 | 32203 ft | 415 kts | 254° |
| 2026-04-22 01:10 | 28.97472 | -138.24360 | 32195 ft | 416 kts | 254° |
| 2026-04-22 01:11 | 28.96017 | -138.30792 | 32192 ft | 419 kts | 254° |
| 2026-04-22 01:11 | 28.94557 | -138.37238 | 32195 ft | 419 kts | 254° |
| 2026-04-22 01:12 | 28.93094 | -138.43676 | 32199 ft | 419 kts | 254° |
| 2026-04-22 01:12 | 28.91618 | -138.50158 | 32192 ft | 424 kts | 255° |
| 2026-04-22 01:13 | 28.90130 | -138.56676 | 32194 ft | 424 kts | 255° |
| 2026-04-22 01:13 | 28.88640 | -138.63189 | 32192 ft | 424 kts | 254° |
| 2026-04-22 01:14 | 28.87144 | -138.69713 | 32203 ft | 427 kts | 255° |
| 2026-04-22 01:14 | 28.85638 | -138.76266 | 32197 ft | 425 kts | 254° |
| 2026-04-22 01:15 | 28.84153 | -138.82718 | 32196 ft | 423 kts | 254° |
| 2026-04-22 01:15 | 28.82655 | -138.89209 | 32198 ft | 423 kts | 254° |
| 2026-04-22 01:16 | 28.81154 | -138.95700 | 32190 ft | 423 kts | 254° |
| 2026-04-22 01:16 | 28.79649 | -139.02194 | 32192 ft | 423 kts | 254° |
| 2026-04-22 01:17 | 28.78142 | -139.08678 | 32194 ft | 423 kts | 254° |
| 2026-04-22 01:17 | 28.76626 | -139.15186 | 32194 ft | 423 kts | 254° |
| 2026-04-22 01:18 | 28.75118 | -139.21646 | 32189 ft | 422 kts | 254° |
| 2026-04-22 01:18 | 28.73605 | -139.28112 | 32189 ft | 422 kts | 254° |
| 2026-04-22 01:19 | 28.72346 | -139.33487 | 32191 ft | 425 kts | 254° |
| 2026-04-22 01:19 | 28.70809 | -139.40024 | 32195 ft | 428 kts | 254° |
| 2026-04-22 01:20 | 28.69026 | -139.46460 | 32188 ft | 426 kts | 243° |
| 2026-04-22 01:20 | 28.66572 | -139.52573 | 32206 ft | 422 kts | 246° |
| 2026-04-22 01:21 | 28.64267 | -139.58753 | 32193 ft | 426 kts | 247° |
| 2026-04-22 01:21 | 28.61975 | -139.64970 | 32186 ft | 426 kts | 247° |
| 2026-04-22 01:22 | 28.59681 | -139.71189 | 32187 ft | 426 kts | 247° |
| 2026-04-22 01:22 | 28.57384 | -139.77410 | 32169 ft | 428 kts | 247° |
| 2026-04-22 01:23 | 28.55070 | -139.83661 | 32185 ft | 427 kts | 247° |
| 2026-04-22 01:23 | 28.52764 | -139.89884 | 32191 ft | 427 kts | 247° |
| 2026-04-22 01:24 | 28.50457 | -139.96101 | 32187 ft | 427 kts | 247° |
| 2026-04-22 01:24 | 28.48137 | -140.02341 | 32180 ft | 432 kts | 247° |
| 2026-04-22 01:25 | 28.45793 | -140.08632 | 32173 ft | 432 kts | 247° |
| 2026-04-22 01:25 | 28.43472 | -140.14853 | 32181 ft | 429 kts | 247° |
| 2026-04-22 01:26 | 28.41142 | -140.21090 | 32187 ft | 429 kts | 247° |
| 2026-04-22 01:26 | 28.38791 | -140.27369 | 32184 ft | 433 kts | 247° |
| 2026-04-22 01:27 | 28.36433 | -140.33660 | 32181 ft | 433 kts | 247° |
| 2026-04-22 01:27 | 28.34071 | -140.39947 | 32180 ft | 433 kts | 247° |
| 2026-04-22 01:28 | 28.31711 | -140.46222 | 32179 ft | 433 kts | 247° |
| 2026-04-22 01:28 | 28.29336 | -140.52524 | 32184 ft | 434 kts | 247° |
| 2026-04-22 01:29 | 28.26958 | -140.58823 | 32187 ft | 434 kts | 247° |
| 2026-04-22 01:29 | 28.24578 | -140.65119 | 32183 ft | 434 kts | 247° |
| 2026-04-22 01:30 | 28.22182 | -140.71446 | 32186 ft | 438 kts | 247° |
| 2026-04-22 01:30 | 28.19782 | -140.77773 | 32185 ft | 435 kts | 247° |
| 2026-04-22 01:31 | 28.17390 | -140.84070 | 32186 ft | 435 kts | 247° |
| 2026-04-22 01:31 | 28.14993 | -140.90369 | 32176 ft | 437 kts | 247° |
| 2026-04-22 01:32 | 28.12572 | -140.96717 | 32178 ft | 440 kts | 247° |
| 2026-04-22 01:32 | 28.10144 | -141.03076 | 32185 ft | 440 kts | 247° |
| 2026-04-22 01:33 | 28.07719 | -141.09416 | 32178 ft | 437 kts | 247° |
| 2026-04-22 01:33 | 28.05299 | -141.15733 | 32187 ft | 437 kts | 247° |
| 2026-04-22 01:34 | 28.02876 | -141.22045 | 32185 ft | 437 kts | 247° |
| 2026-04-22 01:34 | 28.00450 | -141.28357 | 32177 ft | 437 kts | 247° |
| 2026-04-22 01:35 | 27.98022 | -141.34665 | 32191 ft | 438 kts | 247° |
| 2026-04-22 01:35 | 27.95583 | -141.40989 | 32181 ft | 439 kts | 247° |
| 2026-04-22 01:36 | 27.93139 | -141.47315 | 32181 ft | 439 kts | 247° |
| 2026-04-22 01:36 | 27.90696 | -141.53631 | 32184 ft | 439 kts | 247° |
| 2026-04-22 01:37 | 27.88247 | -141.59952 | 32183 ft | 440 kts | 247° |
| 2026-04-22 01:37 | 27.85780 | -141.66305 | 32178 ft | 442 kts | 247° |
| 2026-04-22 01:38 | 27.83307 | -141.72666 | 32177 ft | 442 kts | 247° |
| 2026-04-22 01:38 | 27.80848 | -141.78980 | 32179 ft | 442 kts | 247° |
| 2026-04-22 01:39 | 27.78368 | -141.85340 | 32179 ft | 444 kts | 247° |
| 2026-04-22 01:39 | 27.75871 | -141.91730 | 32175 ft | 445 kts | 247° |
| 2026-04-22 01:40 | 27.73372 | -141.98115 | 32181 ft | 445 kts | 247° |
| 2026-04-22 01:40 | 27.70870 | -142.04498 | 32175 ft | 444 kts | 247° |
| 2026-04-22 01:41 | 27.68361 | -142.10889 | 32180 ft | 447 kts | 248° |
| 2026-04-22 01:41 | 27.65840 | -142.17298 | 32174 ft | 447 kts | 248° |
| 2026-04-22 01:42 | 27.63316 | -142.23706 | 32175 ft | 447 kts | 248° |
| 2026-04-22 01:42 | 27.60789 | -142.30113 | 32166 ft | 447 kts | 248° |
| 2026-04-22 01:43 | 27.58251 | -142.36531 | 32168 ft | 449 kts | 248° |
| 2026-04-22 01:43 | 27.55708 | -142.42957 | 32173 ft | 449 kts | 248° |
| 2026-04-22 01:44 | 27.53164 | -142.49373 | 32170 ft | 449 kts | 248° |
| 2026-04-22 01:44 | 27.50615 | -142.55795 | 32174 ft | 450 kts | 248° |
| 2026-04-22 01:45 | 27.48053 | -142.62234 | 32175 ft | 451 kts | 248° |
| 2026-04-22 01:45 | 27.45490 | -142.68667 | 32170 ft | 450 kts | 248° |
| 2026-04-22 01:46 | 27.42921 | -142.75104 | 32164 ft | 451 kts | 248° |
| 2026-04-22 01:46 | 27.40347 | -142.81546 | 32167 ft | 452 kts | 248° |
| 2026-04-22 01:47 | 27.37781 | -142.87954 | 32172 ft | 452 kts | 248° |
| 2026-04-22 01:47 | 27.35194 | -142.94405 | 32168 ft | 452 kts | 248° |
| 2026-04-22 01:48 | 27.32606 | -143.00849 | 32158 ft | 452 kts | 248° |
| 2026-04-22 01:48 | 27.30013 | -143.07297 | 32164 ft | 453 kts | 248° |
| 2026-04-22 01:49 | 27.27411 | -143.13754 | 32159 ft | 453 kts | 248° |
| 2026-04-22 01:49 | 27.24807 | -143.20206 | 32160 ft | 453 kts | 248° |
| 2026-04-22 01:50 | 27.22199 | -143.26658 | 32158 ft | 453 kts | 248° |
| 2026-04-22 01:50 | 27.19591 | -143.33099 | 32160 ft | 453 kts | 248° |
| 2026-04-22 01:51 | 27.16981 | -143.39536 | 32154 ft | 454 kts | 248° |
| 2026-04-22 01:51 | 27.14359 | -143.45990 | 32156 ft | 454 kts | 248° |
| 2026-04-22 01:52 | 27.11735 | -143.52440 | 32156 ft | 454 kts | 248° |
| 2026-04-22 01:52 | 27.09110 | -143.58882 | 32158 ft | 454 kts | 248° |
| 2026-04-22 01:53 | 27.06481 | -143.65325 | 32155 ft | 454 kts | 248° |
| 2026-04-22 01:53 | 27.03845 | -143.71773 | 32153 ft | 454 kts | 248° |
| 2026-04-22 01:54 | 27.01203 | -143.78228 | 32155 ft | 455 kts | 248° |
| 2026-04-22 01:54 | 26.98576 | -143.84633 | 32153 ft | 455 kts | 248° |
| 2026-04-22 01:55 | 26.95929 | -143.91078 | 32154 ft | 455 kts | 248° |
| 2026-04-22 01:55 | 26.93275 | -143.97530 | 32154 ft | 455 kts | 248° |
| 2026-04-22 01:56 | 26.90625 | -144.03963 | 32154 ft | 455 kts | 248° |
| 2026-04-22 01:56 | 26.87969 | -144.10400 | 32151 ft | 455 kts | 248° |
| 2026-04-22 01:57 | 26.85307 | -144.16840 | 32149 ft | 455 kts | 248° |
| 2026-04-22 01:57 | 26.82644 | -144.23273 | 32149 ft | 455 kts | 248° |
| 2026-04-22 01:58 | 26.79974 | -144.29714 | 32149 ft | 457 kts | 248° |
| 2026-04-22 01:58 | 26.77293 | -144.36171 | 32145 ft | 457 kts | 248° |
| 2026-04-22 01:59 | 26.74627 | -144.42581 | 32144 ft | 457 kts | 248° |
| 2026-04-22 01:59 | 26.71943 | -144.49026 | 32142 ft | 457 kts | 248° |
| 2026-04-22 02:00 | 26.69251 | -144.55471 | 32355 ft | 455 kts | 248° |
| 2026-04-22 02:00 | 26.67916 | -144.58639 | 33018 ft | 444 kts | 249° |
| 2026-04-22 02:00 | 26.66610 | -144.61728 | 33694 ft | 434 kts | 249° |
| 2026-04-22 02:01 | 26.65325 | -144.64779 | 33942 ft | 435 kts | 249° |
| 2026-04-22 02:01 | 26.64029 | -144.67895 | 33685 ft | 447 kts | 249° |
| 2026-04-22 02:01 | 26.62744 | -144.71049 | 33228 ft | 454 kts | 250° |
| 2026-04-22 02:01 | 26.61453 | -144.74290 | 32737 ft | 457 kts | 250° |
| 2026-04-22 02:02 | 26.60187 | -144.77554 | 32380 ft | 459 kts | 251° |
| 2026-04-22 02:02 | 26.58951 | -144.80843 | 32340 ft | 458 kts | 251° |
| 2026-04-22 02:02 | 26.57760 | -144.84125 | 32731 ft | 452 kts | 252° |
| 2026-04-22 02:02 | 26.56627 | -144.87360 | 33375 ft | 442 kts | 253° |
| 2026-04-22 02:03 | 26.55549 | -144.90555 | 33840 ft | 437 kts | 255° |
| 2026-04-22 02:03 | 26.54509 | -144.93767 | 33851 ft | 443 kts | 256° |
| 2026-04-22 02:03 | 26.53497 | -144.97063 | 33543 ft | 453 kts | 256° |
| 2026-04-22 02:03 | 26.52518 | -145.00436 | 33181 ft | 458 kts | 257° |
| 2026-04-22 02:04 | 26.50698 | -145.07296 | 32911 ft | 462 kts | 259° |
| 2026-04-22 02:04 | 26.49867 | -145.10749 | 33277 ft | 457 kts | 261° |
| 2026-04-22 02:04 | 26.49096 | -145.14157 | 33831 ft | 449 kts | 262° |
| 2026-04-22 02:05 | 26.48617 | -145.16388 | 34107 ft | 446 kts | 263° |
| 2026-04-22 02:05 | 26.47084 | -145.24356 | 33930 ft | 459 kts | 265° |
| 2026-04-22 02:05 | 26.46500 | -145.27877 | 33613 ft | 461 kts | 266° |
| 2026-04-22 02:06 | 26.46144 | -145.30210 | 33420 ft | 460 kts | 266° |
| 2026-04-22 02:06 | 26.45657 | -145.33730 | 33216 ft | 459 kts | 267° |
| 2026-04-22 02:06 | 26.45234 | -145.37250 | 33239 ft | 457 kts | 268° |
| 2026-04-22 02:06 | 26.44879 | -145.40763 | 33572 ft | 453 kts | 270° |
| 2026-04-22 02:07 | 26.44593 | -145.44230 | 34073 ft | 445 kts | 271° |
| 2026-04-22 02:07 | 26.44369 | -145.47661 | 34400 ft | 442 kts | 273° |
| 2026-04-22 02:07 | 26.44208 | -145.51095 | 34463 ft | 445 kts | 274° |
| 2026-04-22 02:07 | 26.44110 | -145.54579 | 34348 ft | 451 kts | 275° |
| 2026-04-22 02:08 | 26.44073 | -145.58072 | 34204 ft | 449 kts | 276° |
| 2026-04-22 02:08 | 26.44093 | -145.61546 | 33957 ft | 448 kts | 276° |
| 2026-04-22 02:08 | 26.44170 | -145.65016 | 33627 ft | 447 kts | 277° |
| 2026-04-22 02:08 | 26.44309 | -145.68473 | 33302 ft | 446 kts | 278° |
| 2026-04-22 02:09 | 26.44514 | -145.71936 | 33087 ft | 446 kts | 279° |
| 2026-04-22 02:09 | 26.45126 | -145.78792 | 33519 ft | 439 kts | 282° |
| 2026-04-22 02:09 | 26.45523 | -145.82146 | 34087 ft | 431 kts | 284° |
| 2026-04-22 02:10 | 26.45965 | -145.85390 | 34452 ft | 426 kts | 285° |
| 2026-04-22 02:10 | 26.47050 | -145.91953 | 34405 ft | 436 kts | 287° |
| 2026-04-22 02:10 | 26.47699 | -145.95277 | 34184 ft | 438 kts | 288° |
| 2026-04-22 02:11 | 26.48405 | -145.98579 | 33810 ft | 437 kts | 289° |
| 2026-04-22 02:11 | 26.49168 | -146.01864 | 33322 ft | 437 kts | 290° |
| 2026-04-22 02:11 | 26.49996 | -146.05138 | 32845 ft | 437 kts | 291° |
| 2026-04-22 02:11 | 26.50890 | -146.08389 | 32509 ft | 438 kts | 292° |
| 2026-04-22 02:12 | 26.51850 | -146.11606 | 32500 ft | 437 kts | 293° |
| 2026-04-22 02:12 | 26.52873 | -146.14778 | 32931 ft | 430 kts | 295° |
| 2026-04-22 02:12 | 26.53936 | -146.17845 | 33626 ft | 418 kts | 296° |
| 2026-04-22 02:12 | 26.55035 | -146.20819 | 34183 ft | 410 kts | 298° |
| 2026-04-22 02:13 | 26.56170 | -146.23697 | 34311 ft | 413 kts | 300° |
| 2026-04-22 02:13 | 26.57405 | -146.26636 | 34112 ft | 422 kts | 301° |
| 2026-04-22 02:13 | 26.58724 | -146.29585 | 33727 ft | 427 kts | 302° |
| 2026-04-22 02:13 | 26.60117 | -146.32526 | 33280 ft | 429 kts | 303° |
| 2026-04-22 02:14 | 26.61575 | -146.35438 | 32898 ft | 430 kts | 304° |
| 2026-04-22 02:14 | 26.63099 | -146.38317 | 32736 ft | 430 kts | 305° |
| 2026-04-22 02:14 | 26.64680 | -146.41143 | 32922 ft | 428 kts | 307° |
| 2026-04-22 02:14 | 26.66306 | -146.43893 | 33502 ft | 418 kts | 308° |
| 2026-04-22 02:15 | 26.67946 | -146.46529 | 34157 ft | 408 kts | 310° |
| 2026-04-22 02:15 | 26.69610 | -146.49075 | 34511 ft | 404 kts | 311° |
| 2026-04-22 02:15 | 26.71334 | -146.51579 | 34517 ft | 410 kts | 312° |
| 2026-04-22 02:15 | 26.73149 | -146.54088 | 34282 ft | 418 kts | 313° |
| 2026-04-22 02:16 | 26.75037 | -146.56575 | 33901 ft | 419 kts | 315° |
| 2026-04-22 02:16 | 26.76974 | -146.59017 | 33355 ft | 420 kts | 315° |
| 2026-04-22 02:16 | 26.78940 | -146.61384 | 32798 ft | 421 kts | 316° |
| 2026-04-22 02:16 | 26.80874 | -146.63868 | 32353 ft | 426 kts | 306° |
| 2026-04-22 02:17 | 26.82146 | -146.66880 | 32122 ft | 435 kts | 289° |
| 2026-04-22 02:17 | 26.82556 | -146.70266 | 32121 ft | 447 kts | 273° |
| 2026-04-22 02:17 | 26.82073 | -146.73753 | 32117 ft | 460 kts | 257° |
| 2026-04-22 02:17 | 26.80713 | -146.77027 | 32123 ft | 470 kts | 240° |
| 2026-04-22 02:18 | 26.78565 | -146.79824 | 32125 ft | 480 kts | 224° |
| 2026-04-22 02:18 | 26.73047 | -146.84174 | 32118 ft | 487 kts | 217° |
| 2026-04-22 02:19 | 26.67432 | -146.88395 | 32120 ft | 486 kts | 218° |
| 2026-04-22 02:19 | 26.58660 | -146.95021 | 32124 ft | 486 kts | 219° |
| 2026-04-22 02:20 | 26.36702 | -147.12422 | 32111 ft | 489 kts | 216° |
| 2026-04-22 02:20 | 26.13986 | -147.29212 | 32112 ft | 489 kts | 217° |
| 2026-04-22 02:21 | 25.91311 | -147.46099 | 32117 ft | 492 kts | 214° |
| 2026-04-22 02:21 | 25.68368 | -147.62188 | 32115 ft | 488 kts | 223° |
| 2026-04-22 02:22 | 25.46331 | -147.80062 | 32104 ft | 493 kts | 216° |
| 2026-04-22 02:22 | 25.23589 | -147.96988 | 32098 ft | 492 kts | 219° |
| 2026-04-22 02:22 | 25.13637 | -148.06793 | 32062 ft | 478 kts | 240° |
| 2026-04-22 02:23 | 25.10529 | -148.15860 | 32095 ft | 455 kts | 270° |
| 2026-04-22 02:23 | 25.09105 | -148.22706 | 32100 ft | 470 kts | 250° |
| 2026-04-22 02:24 | 25.06293 | -148.29242 | 32094 ft | 472 kts | 250° |
| 2026-04-22 02:24 | 24.97721 | -148.48052 | 32082 ft | 473 kts | 249° |
| 2026-04-22 02:25 | 24.85752 | -148.73966 | 32090 ft | 478 kts | 245° |
| 2026-04-22 02:25 | 24.79800 | -148.86694 | 32089 ft | 468 kts | 256° |
| 2026-04-22 02:25 | 24.77747 | -148.93431 | 32083 ft | 470 kts | 252° |
| 2026-04-22 02:25 | 24.76096 | -148.96577 | 32100 ft | 479 kts | 240° |
| 2026-04-22 02:26 | 24.74313 | -148.99661 | 32072 ft | 476 kts | 246° |
| 2026-04-22 02:26 | 24.71182 | -149.06066 | 32089 ft | 475 kts | 249° |
| 2026-04-22 02:27 | 24.68081 | -149.12688 | 32097 ft | 474 kts | 249° |
| 2026-04-22 02:27 | 24.62123 | -149.25528 | 32087 ft | 474 kts | 249° |
| 2026-04-22 02:28 | 24.56110 | -149.38473 | 32086 ft | 474 kts | 249° |
| 2026-04-22 02:28 | 24.50100 | -149.51387 | 32090 ft | 474 kts | 249° |
| 2026-04-22 02:29 | 24.44095 | -149.64211 | 32091 ft | 473 kts | 249° |
| 2026-04-22 02:29 | 24.38077 | -149.77068 | 32088 ft | 473 kts | 249° |
| 2026-04-22 02:30 | 24.32066 | -149.89893 | 32080 ft | 473 kts | 249° |
| 2026-04-22 02:30 | 24.26035 | -150.02647 | 32084 ft | 469 kts | 249° |
| 2026-04-22 02:31 | 24.20062 | -150.15322 | 32082 ft | 472 kts | 249° |
| 2026-04-22 02:31 | 24.14008 | -150.28095 | 32079 ft | 469 kts | 248° |
| 2026-04-22 02:32 | 24.07970 | -150.40791 | 32082 ft | 470 kts | 248° |
| 2026-04-22 02:32 | 24.01981 | -150.53384 | 32072 ft | 469 kts | 249° |
| 2026-04-22 02:33 | 23.95950 | -150.66021 | 32083 ft | 468 kts | 248° |
| 2026-04-22 02:33 | 23.89888 | -150.78651 | 32075 ft | 467 kts | 247° |
| 2026-04-22 02:34 | 23.83910 | -150.91112 | 32074 ft | 465 kts | 248° |
| 2026-04-22 02:34 | 23.77879 | -151.03659 | 32074 ft | 465 kts | 248° |
| 2026-04-22 02:35 | 23.71893 | -151.16041 | 32072 ft | 463 kts | 247° |
| 2026-04-22 02:35 | 23.65868 | -151.28491 | 32059 ft | 462 kts | 248° |
| 2026-04-22 02:36 | 23.59865 | -151.40939 | 32062 ft | 462 kts | 247° |
| 2026-04-22 02:36 | 23.53864 | -151.53253 | 32073 ft | 462 kts | 247° |
| 2026-04-22 02:37 | 23.47825 | -151.65615 | 32071 ft | 461 kts | 247° |
| 2026-04-22 02:37 | 23.41783 | -151.77991 | 32071 ft | 463 kts | 247° |
| 2026-04-22 02:38 | 23.35741 | -151.90308 | 32062 ft | 462 kts | 247° |
| 2026-04-22 02:38 | 23.29685 | -152.02663 | 32065 ft | 460 kts | 247° |
| 2026-04-22 02:39 | 23.23668 | -152.14864 | 32060 ft | 462 kts | 247° |
| 2026-04-22 02:39 | 23.17560 | -152.27268 | 32057 ft | 461 kts | 246° |
| 2026-04-22 02:40 | 23.11527 | -152.39429 | 32062 ft | 460 kts | 246° |
| 2026-04-22 02:40 | 23.05468 | -152.51671 | 32062 ft | 460 kts | 246° |
| 2026-04-22 02:41 | 22.99344 | -152.63883 | 32060 ft | 460 kts | 246° |
| 2026-04-22 02:41 | 22.93233 | -152.76092 | 32062 ft | 460 kts | 246° |
| 2026-04-22 02:42 | 22.87092 | -152.88281 | 32057 ft | 460 kts | 246° |
| 2026-04-22 02:42 | 22.80963 | -153.00443 | 32057 ft | 459 kts | 246° |
| 2026-04-22 02:43 | 22.74827 | -153.12583 | 32057 ft | 460 kts | 245° |
| 2026-04-22 02:43 | 22.68686 | -153.24688 | 32057 ft | 458 kts | 246° |
| 2026-04-22 02:44 | 22.62553 | -153.36781 | 32051 ft | 458 kts | 245° |
| 2026-04-22 02:44 | 22.56398 | -153.48853 | 32053 ft | 457 kts | 246° |
| 2026-04-22 02:45 | 22.50271 | -153.60883 | 32057 ft | 457 kts | 245° |
| 2026-04-22 02:45 | 22.44105 | -153.72903 | 32056 ft | 457 kts | 245° |
| 2026-04-22 02:46 | 22.37963 | -153.84910 | 32052 ft | 456 kts | 245° |
| 2026-04-22 02:46 | 22.31382 | -153.96655 | 32054 ft | 457 kts | 243° |
| 2026-04-22 02:47 | 22.24735 | -154.08282 | 32052 ft | 457 kts | 243° |
| 2026-04-22 02:47 | 22.18098 | -154.19916 | 32042 ft | 455 kts | 243° |
| 2026-04-22 02:48 | 22.11428 | -154.31560 | 32048 ft | 456 kts | 242° |
| 2026-04-22 02:48 | 22.04749 | -154.43178 | 32046 ft | 454 kts | 243° |
| 2026-04-22 02:49 | 21.98199 | -154.54584 | 32041 ft | 454 kts | 242° |
| 2026-04-22 02:49 | 21.94936 | -154.60425 | 32042 ft | 452 kts | 246° |
| 2026-04-22 02:50 | 21.91973 | -154.66410 | 32046 ft | 453 kts | 246° |
| 2026-04-22 02:50 | 21.88972 | -154.72375 | 32046 ft | 453 kts | 246° |
| 2026-04-22 02:51 | 21.85976 | -154.78312 | 32041 ft | 442 kts | 246° |
| 2026-04-22 02:51 | 21.83131 | -154.83942 | 31412 ft | 427 kts | 246° |
| 2026-04-22 02:51 | 21.81715 | -154.86742 | 30854 ft | 426 kts | 246° |
| 2026-04-22 02:52 | 21.80301 | -154.89537 | 30335 ft | 424 kts | 246° |
| 2026-04-22 02:52 | 21.78892 | -154.92322 | 29784 ft | 423 kts | 246° |
| 2026-04-22 02:52 | 21.77489 | -154.95092 | 29222 ft | 420 kts | 245° |
| 2026-04-22 02:52 | 21.76098 | -154.97838 | 28736 ft | 417 kts | 245° |
| 2026-04-22 02:53 | 21.75161 | -154.99685 | 28409 ft | 414 kts | 245° |
| 2026-04-22 02:53 | 21.73802 | -155.02365 | 27921 ft | 411 kts | 245° |
| 2026-04-22 02:53 | 21.72436 | -155.05058 | 27451 ft | 408 kts | 245° |
| 2026-04-22 02:53 | 21.71079 | -155.07733 | 26983 ft | 405 kts | 245° |
| 2026-04-22 02:54 | 21.69732 | -155.10385 | 26519 ft | 403 kts | 245° |
| 2026-04-22 02:54 | 21.69532 | -155.08318 | 26429 ft | 0 kts | 245° |
| 2026-04-22 02:54 | 21.69301 | -155.08852 | 26393 ft | 399 kts | 249° |
| 2026-04-22 02:55 | 21.68325 | -155.11625 | 25919 ft | 395 kts | 253° |
| 2026-04-22 02:55 | 21.67300 | -155.14336 | 25716 ft | 388 kts | 250° |
| 2026-04-22 02:55 | 21.66175 | -155.16949 | 25399 ft | 383 kts | 248° |
| 2026-04-22 02:55 | 21.64983 | -155.19508 | 24962 ft | 383 kts | 246° |
| 2026-04-22 02:56 | 21.63747 | -155.22044 | 24523 ft | 383 kts | 245° |
| 2026-04-22 02:56 | 21.62496 | -155.24563 | 24106 ft | 382 kts | 245° |
| 2026-04-22 02:56 | 21.61234 | -155.27068 | 23681 ft | 381 kts | 245° |
| 2026-04-22 02:56 | 21.59966 | -155.29567 | 23207 ft | 380 kts | 245° |
| 2026-04-22 02:57 | 21.58702 | -155.32051 | 22767 ft | 378 kts | 244° |
| 2026-04-22 02:57 | 21.57445 | -155.34517 | 22362 ft | 375 kts | 244° |
| 2026-04-22 02:57 | 21.56198 | -155.36961 | 21965 ft | 372 kts | 244° |
| 2026-04-22 02:57 | 21.54959 | -155.39387 | 21573 ft | 369 kts | 244° |
| 2026-04-22 02:58 | 21.53729 | -155.41794 | 21180 ft | 366 kts | 244° |
| 2026-04-22 02:58 | 21.52506 | -155.44186 | 20800 ft | 364 kts | 244° |
| 2026-04-22 02:58 | 21.51293 | -155.46559 | 20413 ft | 362 kts | 244° |
| 2026-04-22 02:58 | 21.50086 | -155.48919 | 20037 ft | 359 kts | 245° |
| 2026-04-22 02:59 | 21.48886 | -155.51264 | 19663 ft | 357 kts | 245° |
| 2026-04-22 02:59 | 21.47692 | -155.53595 | 19286 ft | 356 kts | 245° |
| 2026-04-22 02:59 | 21.46503 | -155.55916 | 18911 ft | 354 kts | 245° |
| 2026-04-22 02:59 | 21.45320 | -155.58226 | 18538 ft | 352 kts | 245° |
| 2026-04-22 03:00 | 21.44157 | -155.60494 | 18143 ft | 351 kts | 245° |
| 2026-04-22 03:00 | 21.42982 | -155.62784 | 17738 ft | 349 kts | 244° |
| 2026-04-22 03:00 | 21.41818 | -155.65053 | 17360 ft | 346 kts | 244° |
| 2026-04-22 03:00 | 21.40662 | -155.67304 | 16991 ft | 343 kts | 244° |
| 2026-04-22 03:01 | 21.39514 | -155.69540 | 16630 ft | 341 kts | 244° |
| 2026-04-22 03:01 | 21.38375 | -155.71757 | 16257 ft | 338 kts | 244° |
| 2026-04-22 03:01 | 21.37242 | -155.73960 | 15885 ft | 336 kts | 244° |
| 2026-04-22 03:01 | 21.36116 | -155.76152 | 15528 ft | 334 kts | 244° |
| 2026-04-22 03:02 | 21.34997 | -155.78327 | 15170 ft | 332 kts | 244° |
| 2026-04-22 03:02 | 21.33886 | -155.80485 | 14817 ft | 330 kts | 244° |
| 2026-04-22 03:02 | 21.32780 | -155.82633 | 14467 ft | 328 kts | 244° |
| 2026-04-22 03:02 | 21.31681 | -155.84768 | 14119 ft | 326 kts | 244° |
| 2026-04-22 03:03 | 21.30586 | -155.86894 | 13749 ft | 325 kts | 243° |
| 2026-04-22 03:03 | 21.29498 | -155.89004 | 13365 ft | 323 kts | 243° |
| 2026-04-22 03:03 | 21.28414 | -155.91105 | 13003 ft | 321 kts | 243° |
| 2026-04-22 03:03 | 21.27340 | -155.93188 | 12646 ft | 318 kts | 243° |
| 2026-04-22 03:04 | 21.26273 | -155.95256 | 12309 ft | 315 kts | 243° |
| 2026-04-22 03:04 | 21.25216 | -155.97303 | 11972 ft | 313 kts | 243° |
| 2026-04-22 03:04 | 21.24168 | -155.99334 | 11635 ft | 311 kts | 242° |
| 2026-04-22 03:04 | 21.23124 | -156.01355 | 11297 ft | 309 kts | 242° |
| 2026-04-22 03:05 | 21.22088 | -156.03361 | 10963 ft | 307 kts | 242° |
| 2026-04-22 03:05 | 21.21058 | -156.05354 | 10642 ft | 304 kts | 242° |
| 2026-04-22 03:05 | 21.20044 | -156.07315 | 10466 ft | 297 kts | 242° |
| 2026-04-22 03:05 | 21.19059 | -156.09220 | 10332 ft | 288 kts | 242° |
| 2026-04-22 03:06 | 21.18102 | -156.11070 | 10204 ft | 279 kts | 242° |
| 2026-04-22 03:06 | 21.16951 | -156.12699 | 10016 ft | 274 kts | 221° |
| 2026-04-22 03:06 | 21.15434 | -156.13917 | 9742 ft | 271 kts | 218° |
| 2026-04-22 03:06 | 21.13918 | -156.15114 | 9419 ft | 270 kts | 217° |
| 2026-04-22 03:07 | 21.12405 | -156.16296 | 9106 ft | 268 kts | 217° |
| 2026-04-22 03:07 | 21.10899 | -156.17464 | 8818 ft | 266 kts | 217° |
| 2026-04-22 03:07 | 21.09400 | -156.18622 | 8518 ft | 265 kts | 217° |
| 2026-04-22 03:07 | 21.07907 | -156.19773 | 8216 ft | 264 kts | 217° |
| 2026-04-22 03:08 | 21.06426 | -156.20913 | 7963 ft | 261 kts | 217° |
| 2026-04-22 03:08 | 21.04992 | -156.22015 | 7814 ft | 253 kts | 217° |
| 2026-04-22 03:08 | 21.03569 | -156.23108 | 7690 ft | 244 kts | 216° |
| 2026-04-22 03:08 | 21.02230 | -156.24135 | 7535 ft | 237 kts | 216° |
| 2026-04-22 03:09 | 21.00886 | -156.25154 | 7274 ft | 239 kts | 216° |
| 2026-04-22 03:09 | 20.99513 | -156.26195 | 6997 ft | 244 kts | 216° |
| 2026-04-22 03:09 | 20.98113 | -156.27255 | 6717 ft | 248 kts | 216° |
| 2026-04-22 03:09 | 20.96710 | -156.28319 | 6517 ft | 247 kts | 216° |
| 2026-04-22 03:10 | 20.95308 | -156.29382 | 6316 ft | 247 kts | 216° |
| 2026-04-22 03:10 | 20.93910 | -156.30442 | 6116 ft | 246 kts | 216° |
| 2026-04-22 03:10 | 20.92516 | -156.31498 | 5919 ft | 245 kts | 216° |
| 2026-04-22 03:10 | 20.91123 | -156.32553 | 5710 ft | 245 kts | 216° |
| 2026-04-22 03:11 | 20.89730 | -156.33608 | 5488 ft | 245 kts | 215° |
| 2026-04-22 03:11 | 20.88334 | -156.34647 | 5266 ft | 244 kts | 214° |
| 2026-04-22 03:11 | 20.86937 | -156.35679 | 5056 ft | 244 kts | 214° |
| 2026-04-22 03:11 | 20.85547 | -156.36708 | 4834 ft | 243 kts | 214° |
| 2026-04-22 03:12 | 20.84162 | -156.37733 | 4612 ft | 242 kts | 215° |
| 2026-04-22 03:12 | 20.81400 | -156.39777 | 4167 ft | 241 kts | 215° |
| 2026-04-22 03:12 | 20.80024 | -156.40795 | 3946 ft | 240 kts | 215° |
| 2026-04-22 03:13 | 20.78657 | -156.41806 | 3785 ft | 238 kts | 215° |
| 2026-04-22 03:13 | 20.77295 | -156.42814 | 3574 ft | 238 kts | 215° |
| 2026-04-22 03:13 | 20.75974 | -156.43876 | 3361 ft | 238 kts | 216° |
| 2026-04-22 03:13 | 20.74626 | -156.44897 | 3136 ft | 237 kts | 220° |
| 2026-04-22 03:14 | 20.73607 | -156.46262 | 2891 ft | 236 kts | 245° |
| 2026-04-22 03:14 | 20.73211 | -156.47932 | 2677 ft | 230 kts | 269° |
| 2026-04-22 03:14 | 20.73500 | -156.49551 | 2510 ft | 217 kts | 295° |
| 2026-04-22 03:14 | 20.74290 | -156.50844 | 2460 ft | 200 kts | 310° |
| 2026-04-22 03:15 | 20.75347 | -156.51689 | 2423 ft | 187 kts | 340° |
| 2026-04-22 03:15 | 20.76621 | -156.51857 | 2398 ft | 186 kts | 6° |
| 2026-04-22 03:15 | 20.77884 | -156.51587 | 2414 ft | 184 kts | 19° |
| 2026-04-22 03:15 | 20.79005 | -156.51008 | 2361 ft | 174 kts | 31° |
| 2026-04-22 03:16 | 20.79970 | -156.50316 | 2156 ft | 158 kts | 34° |
| 2026-04-22 03:16 | 20.80835 | -156.49665 | 1994 ft | 149 kts | 34° |
| 2026-04-22 03:16 | 20.81664 | -156.49045 | 1797 ft | 146 kts | 34° |
| 2026-04-22 03:16 | 20.82489 | -156.48428 | 1587 ft | 144 kts | 34° |
| 2026-04-22 03:17 | 20.83310 | -156.47816 | 1412 ft | 145 kts | 34° |
| 2026-04-22 03:17 | 20.84133 | -156.47202 | 1218 ft | 144 kts | 35° |
| 2026-04-22 03:17 | 20.84948 | -156.46592 | 1020 ft | 142 kts | 35° |
| 2026-04-22 03:17 | 20.85759 | -156.45990 | 873 ft | 142 kts | 34° |
| 2026-04-22 03:18 | 20.86564 | -156.45389 | 717 ft | 140 kts | 34° |
| 2026-04-22 03:18 | 20.87359 | -156.44797 | 525 ft | 139 kts | 35° |
| 2026-04-22 03:18 | 20.88140 | -156.44201 | 290 ft | 137 kts | 34° |
| 2026-04-22 03:18 | 20.88917 | -156.43631 | 88 ft | 134 kts | 34° |
| 2026-04-22 03:19 | 20.89583 | -156.43137 | 50 ft | 85 kts | 34° |
| 2026-04-22 03:19 | 20.89923 | -156.42884 | 46 ft | 50 kts | 34° |
| 2026-04-22 03:19 | 20.90145 | -156.42718 | 46 ft | 29 kts | 35° |
| 2026-04-22 03:19 | 20.90258 | -156.42669 | 46 ft | 8 kts | 303° |
| 2026-04-22 03:20 | 20.90242 | -156.42714 | 46 ft | 10 kts | 243° |
| 2026-04-22 03:20 | 20.90195 | -156.42811 | 46 ft | 18 kts | 240° |
| 2026-04-22 03:20 | 20.90101 | -156.42910 | 46 ft | 20 kts | 216° |
| 2026-04-22 03:20 | 20.89981 | -156.42999 | 45 ft | 22 kts | 215° |
| 2026-04-22 03:21 | 20.89853 | -156.43095 | 47 ft | 23 kts | 215° |
| 2026-04-22 03:21 | 20.89714 | -156.43198 | 47 ft | 25 kts | 214° |
| 2026-04-22 03:21 | 20.89565 | -156.43309 | 45 ft | 27 kts | 215° |
| 2026-04-22 03:21 | 20.89447 | -156.43397 | 45 ft | 14 kts | 215° |
| 2026-04-22 03:22 | 20.89361 | -156.43460 | 47 ft | 16 kts | 214° |
| 2026-04-22 03:22 | 20.89264 | -156.43533 | 47 ft | 18 kts | 216° |
| 2026-04-22 03:22 | 20.89170 | -156.43604 | 47 ft | 13 kts | 214° |
| 2026-04-22 03:22 | 20.89150 | -156.43676 | 47 ft | 10 kts | 300° |
| 2026-04-22 03:23 | 20.89178 | -156.43721 | 47 ft | 4 kts | 304° |
| 2026-04-22 03:23 | 20.89191 | -156.43741 | 46 ft | 3 kts | 305° |
| 2026-04-22 03:23 | 20.89196 | -156.43748 | 47 ft | 0 kts | 305° |